createdAt,value
2023-04-01T00:01:16.139Z,18.77
2023-04-01T00:03:47.081Z,20.95
2023-04-01T00:06:17.606Z,19.60
2023-04-01T00:08:46.079Z,19.65
2023-04-01T00:11:14.240Z,18.83
2023-04-01T00:13:42.470Z,19.38
2023-04-01T00:16:20.888Z,18.27
2023-04-01T00:18:51.211Z,19.67
2023-04-01T00:21:22.000Z,18.92
2023-04-01T00:23:52.124Z,18.08
2023-04-01T00:26:22.528Z,17.65
2023-04-01T00:28:51.347Z,18.48
2023-04-01T00:31:19.516Z,18.45
2023-04-01T00:33:47.354Z,18.42
2023-04-01T00:36:18.432Z,18.30
2023-04-01T00:38:50.022Z,18.58
2023-04-01T00:41:19.594Z,17.45
2023-04-01T00:43:50.707Z,16.85
2023-04-01T00:46:18.966Z,16.65
2023-04-01T00:48:54.871Z,17.27
2023-04-01T00:51:31.247Z,16.85
2023-04-01T00:54:02.880Z,17.23
2023-04-01T00:56:40.810Z,17.75
2023-04-01T00:59:14.608Z,17.88
2023-04-01T01:01:43.031Z,17.10
2023-04-01T01:04:26.654Z,17.30
2023-04-01T01:07:04.057Z,18.38
2023-04-01T01:09:49.296Z,17.67
2023-04-01T01:12:17.105Z,17.45
2023-04-01T01:15:05.161Z,18.17
2023-04-01T01:17:55.637Z,18.48
2023-04-01T01:20:48.956Z,19.35
2023-04-01T01:23:37.707Z,20.83
2023-04-01T01:26:40.918Z,19.42
2023-04-01T01:29:44.964Z,21.23
2023-04-01T01:32:31.207Z,20.73
2023-04-01T01:35:27.581Z,21.42
2023-04-01T01:38:01.060Z,24.45
2023-04-01T01:40:30.909Z,25.63
2023-04-01T01:43:04.921Z,25.85
2023-04-01T01:45:36.953Z,25.63
2023-04-01T01:48:06.767Z,29.25
2023-04-01T01:50:35.437Z,27.77
2023-04-01T01:53:09.225Z,29.20
2023-04-01T01:55:40.766Z,29.05
2023-04-01T01:58:15.093Z,27.38
2023-04-01T02:00:48.596Z,27.48
2023-04-01T02:03:18.302Z,28.63
2023-04-01T02:05:47.189Z,28.35
2023-04-01T02:08:22.547Z,29.15
2023-04-01T02:13:35.733Z,28.13
2023-04-01T02:16:10.156Z,26.98
2023-04-01T02:18:39.907Z,27.35
2023-04-01T02:21:09.924Z,27.85
2023-04-01T02:23:39.603Z,27.17
2023-04-01T02:26:09.857Z,27.05
2023-04-01T02:28:39.636Z,24.50
2023-04-01T02:31:12.293Z,26.75
2023-04-01T02:33:41.070Z,25.48
2023-04-01T02:36:14.302Z,25.25
2023-04-01T02:38:44.159Z,25.52
2023-04-01T02:41:12.821Z,25.02
2023-04-01T02:43:40.717Z,24.17
2023-04-01T02:46:08.578Z,24.25
2023-04-01T02:48:36.418Z,22.38
2023-04-01T02:51:05.101Z,24.42
2023-04-01T02:53:33.022Z,23.88
2023-04-01T02:56:00.772Z,22.83
2023-04-01T02:58:28.580Z,22.98
2023-04-01T03:00:56.436Z,23.13
2023-04-01T03:03:24.358Z,21.45
2023-04-01T03:05:52.385Z,21.98
2023-04-01T03:08:20.783Z,22.65
2023-04-01T03:10:48.557Z,23.17
2023-04-01T03:13:16.924Z,23.48
2023-04-01T03:15:45.022Z,23.40
2023-04-01T03:18:12.908Z,24.02
2023-04-01T03:20:41.556Z,23.20
2023-04-01T03:23:10.068Z,22.50
2023-04-01T03:25:38.359Z,23.30
2023-04-01T03:28:06.334Z,25.63
2023-04-01T03:30:34.881Z,27.23
2023-04-01T03:33:03.353Z,26.08
2023-04-01T03:35:33.573Z,26.60
2023-04-01T03:38:01.580Z,25.95
2023-04-01T03:40:29.378Z,24.02
2023-04-01T03:42:57.409Z,23.83
2023-04-01T03:45:25.477Z,24.33
2023-04-01T03:47:53.516Z,23.05
2023-04-01T03:50:22.134Z,23.25
2023-04-01T03:52:50.302Z,23.58
2023-04-01T03:55:19.140Z,23.98
2023-04-01T03:57:49.196Z,24.90
2023-04-01T04:00:20.056Z,21.85
2023-04-01T04:02:52.788Z,24.92
2023-04-01T04:05:27.769Z,24.08
2023-04-01T04:07:55.783Z,23.33
2023-04-01T04:10:24.410Z,23.25
2023-04-01T04:12:53.222Z,23.38
2023-04-01T04:15:23.832Z,24.95
2023-04-01T04:17:51.881Z,23.05
2023-04-01T04:20:19.742Z,23.63
2023-04-01T04:22:48.178Z,22.02
2023-04-01T04:25:16.193Z,22.70
2023-04-01T04:27:44.036Z,21.95
2023-04-01T04:30:14.448Z,22.05
2023-04-01T04:32:43.249Z,22.27
2023-04-01T04:35:12.835Z,20.70
2023-04-01T04:37:41.404Z,22.52
2023-04-01T04:40:09.659Z,21.30
2023-04-01T04:42:37.723Z,21.40
2023-04-01T04:45:10.886Z,21.95
2023-04-01T04:47:42.224Z,21.27
2023-04-01T04:50:10.946Z,23.45
2023-04-01T04:52:40.807Z,23.98
2023-04-01T04:55:08.922Z,21.25
2023-04-01T04:57:37.261Z,22.02
2023-04-01T05:00:05.909Z,22.70
2023-04-01T05:03:02.908Z,23.10
2023-04-01T05:05:31.198Z,21.27
2023-04-01T05:07:59.501Z,20.75
2023-04-01T05:10:27.512Z,20.70
2023-04-01T05:12:55.412Z,22.13
2023-04-01T05:15:24.819Z,21.55
2023-04-01T05:17:53.006Z,21.55
2023-04-01T05:20:20.886Z,19.90
2023-04-01T05:22:48.960Z,21.23
2023-04-01T05:25:17.126Z,20.45
2023-04-01T05:27:44.980Z,20.63
2023-04-01T05:30:13.088Z,20.88
2023-04-01T05:32:59.185Z,20.05
2023-04-01T05:35:27.116Z,18.70
2023-04-01T05:37:54.942Z,18.65
2023-04-01T05:40:23.242Z,18.88
2023-04-01T05:42:50.996Z,17.75
2023-04-01T05:45:19.187Z,17.50
2023-04-01T05:48:07.211Z,19.00
2023-04-01T05:50:42.797Z,17.30
2023-04-01T05:53:12.197Z,16.65
2023-04-01T05:55:43.590Z,16.90
2023-04-01T05:58:11.900Z,16.95
2023-04-01T06:00:41.583Z,16.80
2023-04-01T06:03:09.625Z,17.08
2023-04-01T06:05:42.811Z,17.33
2023-04-01T06:08:19.060Z,16.73
2023-04-01T06:11:00.720Z,16.92
2023-04-01T06:13:34.552Z,16.15
2023-04-01T06:16:19.867Z,17.23
2023-04-01T06:19:15.888Z,18.23
2023-04-01T06:22:07.286Z,19.50
2023-04-01T06:24:42.136Z,18.08
2023-04-01T06:27:41.220Z,17.80
2023-04-01T06:30:39.612Z,18.73
2023-04-01T06:33:32.786Z,18.38
2023-04-01T06:36:07.105Z,18.30
2023-04-01T06:38:44.175Z,20.00
2023-04-01T06:41:36.532Z,23.00
2023-04-01T06:44:26.292Z,22.73
2023-04-01T06:47:38.958Z,22.83
2023-04-01T06:51:13.370Z,21.67
2023-04-01T06:54:22.772Z,22.30
2023-04-01T06:57:43.723Z,23.88
2023-04-01T07:00:28.318Z,21.77
2023-04-01T07:03:19.553Z,20.60
2023-04-01T07:05:51.121Z,21.52
2023-04-01T07:08:33.937Z,20.77
2023-04-01T07:11:38.494Z,20.45
2023-04-01T07:14:36.600Z,21.15
2023-04-01T07:17:34.009Z,20.20
2023-04-01T07:20:23.874Z,21.63
2023-04-01T07:26:45.601Z,19.58
2023-04-01T07:36:48.746Z,18.58
2023-04-01T07:40:03.273Z,18.15
2023-04-01T07:43:07.533Z,16.13
2023-04-01T07:46:01.059Z,16.30
2023-04-01T08:08:16.033Z,14.65
2023-04-01T08:39:36.871Z,15.88
2023-04-01T08:42:36.413Z,16.08
2023-04-01T08:45:23.082Z,15.15
2023-04-01T08:47:56.766Z,14.38
2023-04-01T08:51:01.177Z,14.05
2023-04-01T08:53:45.505Z,13.57
2023-04-01T08:56:24.750Z,13.35
2023-04-01T08:59:10.400Z,15.15
2023-04-01T09:01:55.385Z,14.18
2023-04-01T09:05:15.859Z,15.13
2023-04-01T09:08:13.616Z,15.82
2023-04-01T09:10:59.640Z,17.50
2023-04-01T09:14:01.114Z,17.05
2023-04-01T09:17:08.313Z,16.53
2023-04-01T09:20:11.502Z,15.68
2023-04-01T09:22:48.580Z,25.50
2023-04-01T09:25:42.901Z,21.40
2023-04-01T09:28:19.821Z,17.98
2023-04-01T09:30:51.252Z,22.45
2023-04-01T09:33:44.898Z,17.27
2023-04-01T09:38:58.860Z,16.58
2023-04-01T09:41:48.107Z,16.00
2023-04-01T09:44:28.593Z,16.40
2023-04-01T09:47:44.395Z,15.73
2023-04-01T09:50:24.514Z,15.80
2023-04-01T09:53:03.813Z,15.60
2023-04-01T09:56:10.139Z,14.88
2023-04-01T09:59:24.697Z,15.10
2023-04-01T10:02:54.261Z,13.95
2023-04-01T10:05:54.028Z,6.72
2023-04-01T10:08:32.528Z,7.85
2023-04-01T10:11:24.466Z,4.70
2023-04-01T10:14:05.054Z,2.78
2023-04-01T10:16:55.724Z,2.42
2023-04-01T10:20:11.886Z,2.40
2023-04-01T10:23:09.757Z,2.15
2023-04-01T10:25:58.772Z,1.75
2023-04-01T10:28:48.955Z,2.10
2023-04-01T10:31:59.249Z,2.00
2023-04-01T10:34:45.394Z,3.42
2023-04-01T10:37:41.589Z,3.10
2023-04-01T10:40:40.351Z,2.72
2023-04-01T10:43:38.403Z,3.20
2023-04-01T10:46:36.371Z,3.72
2023-04-01T10:49:35.536Z,3.00
2023-04-01T10:52:39.698Z,3.63
2023-04-01T10:55:38.692Z,3.50
2023-04-01T10:58:58.237Z,3.65
2023-04-01T11:02:10.039Z,3.28
2023-04-01T11:05:24.593Z,3.80
2023-04-01T11:08:24.251Z,3.70
2023-04-01T11:11:30.015Z,3.92
2023-04-01T11:14:32.383Z,3.08
2023-04-01T11:17:28.572Z,3.20
2023-04-01T11:20:38.488Z,2.47
2023-04-01T11:23:26.760Z,2.08
2023-04-01T11:26:13.945Z,2.03
2023-04-01T11:29:56.719Z,1.83
2023-04-01T11:32:52.472Z,1.55
2023-04-01T11:35:50.094Z,1.40
2023-04-01T11:38:58.539Z,1.02
2023-04-01T11:42:11.955Z,1.60
2023-04-01T11:45:25.027Z,1.52
2023-04-01T11:48:18.413Z,2.13
2023-04-01T11:50:55.584Z,1.67
2023-04-01T11:53:30.873Z,2.05
2023-04-01T11:56:29.778Z,1.73
2023-04-01T11:59:09.678Z,2.17
2023-04-01T12:02:09.450Z,2.22
2023-04-01T12:05:07.410Z,1.90
2023-04-01T12:07:54.019Z,2.95
2023-04-01T12:10:46.065Z,2.55
2023-04-01T12:13:20.490Z,2.75
2023-04-01T12:15:57.361Z,2.90
2023-04-01T12:19:01.406Z,2.65
2023-04-01T12:21:44.741Z,2.65
2023-04-01T12:24:32.227Z,1.92
2023-04-01T12:27:09.356Z,1.95
2023-04-01T12:30:07.842Z,2.00
2023-04-01T12:33:06.611Z,1.85
2023-04-01T12:36:09.675Z,2.00
2023-04-01T12:38:53.477Z,1.67
2023-04-01T12:41:27.337Z,1.75
2023-04-01T12:44:04.406Z,2.15
2023-04-01T12:46:58.772Z,1.70
2023-04-01T12:49:32.794Z,1.85
2023-04-01T12:54:50.856Z,2.20
2023-04-01T12:57:24.840Z,2.13
2023-04-01T13:02:52.475Z,2.38
2023-04-01T13:05:37.793Z,2.65
2023-04-01T13:08:13.288Z,3.10
2023-04-01T13:10:44.672Z,2.55
2023-04-01T13:13:49.238Z,3.10
2023-04-01T13:16:31.234Z,2.70
2023-04-01T13:19:32.214Z,2.58
2023-04-01T13:22:25.858Z,3.30
2023-04-01T13:25:05.736Z,3.17
2023-04-01T13:27:47.537Z,2.83
2023-04-01T13:30:34.446Z,2.90
2023-04-01T13:33:51.553Z,2.40
2023-04-01T13:36:26.828Z,2.38
2023-04-01T13:39:04.096Z,2.40
2023-04-01T13:41:35.246Z,2.28
2023-04-01T13:44:17.719Z,2.17
2023-04-01T13:47:25.040Z,2.53
2023-04-01T13:50:23.849Z,2.55
2023-04-01T13:53:10.422Z,2.55
2023-04-01T13:55:59.441Z,2.38
2023-04-01T13:58:52.129Z,2.00
2023-04-01T14:01:32.346Z,2.00
2023-04-01T14:04:19.095Z,2.00
2023-04-01T14:07:19.561Z,2.30
2023-04-01T14:10:08.858Z,1.90
2023-04-01T14:12:49.132Z,2.50
2023-04-01T14:15:23.402Z,2.67
2023-04-01T14:18:28.979Z,2.70
2023-04-01T14:21:06.106Z,2.42
2023-04-01T14:24:06.008Z,2.70
2023-04-01T14:27:03.773Z,2.67
2023-04-01T14:29:41.494Z,2.25
2023-04-01T14:32:52.853Z,2.50
2023-04-01T14:35:42.764Z,2.78
2023-04-01T14:38:29.961Z,2.70
2023-04-01T14:41:12.973Z,2.53
2023-04-01T14:43:56.140Z,2.33
2023-04-01T14:47:04.789Z,2.33
2023-04-01T14:49:43.261Z,2.50
2023-04-01T14:52:39.510Z,2.67
2023-04-01T14:55:32.904Z,2.15
2023-04-01T14:58:16.376Z,2.33
2023-04-01T15:01:06.218Z,2.60
2023-04-01T15:03:41.899Z,2.70
2023-04-01T15:06:28.486Z,2.28
2023-04-01T15:09:05.336Z,2.40
2023-04-01T15:21:14.907Z,2.55
2023-04-01T15:24:07.950Z,2.13
2023-04-01T15:26:54.483Z,2.50
2023-04-01T15:29:59.155Z,2.63
2023-04-01T15:33:04.110Z,2.17
2023-04-01T15:38:51.521Z,1.42
2023-04-01T15:41:45.602Z,1.40
2023-04-01T15:44:32.306Z,1.65
2023-04-01T15:47:02.619Z,1.23
2023-04-01T15:49:46.318Z,1.10
2023-04-01T15:52:44.107Z,1.05
2023-04-01T15:55:32.927Z,1.33
2023-04-01T15:58:38.572Z,0.95
2023-04-01T16:01:35.605Z,1.02
2023-04-01T16:04:34.596Z,0.90
2023-04-01T16:07:47.114Z,1.10
2023-04-01T16:10:23.937Z,1.40
2023-04-01T16:13:30.626Z,0.82
2023-04-01T16:16:16.255Z,0.75
2023-04-01T16:18:53.370Z,0.80
2023-04-01T16:22:16.204Z,0.93
2023-04-01T16:25:16.933Z,0.68
2023-04-01T16:28:06.609Z,0.60
2023-04-01T16:30:44.261Z,1.17
2023-04-01T16:33:50.421Z,0.80
2023-04-01T16:36:36.795Z,0.70
2023-04-01T16:39:42.214Z,0.50
2023-04-01T16:42:41.579Z,0.60
2023-04-01T16:45:09.612Z,0.50
2023-04-01T16:47:42.488Z,1.85
2023-04-01T16:50:26.445Z,2.08
2023-04-01T16:53:20.504Z,1.67
2023-04-01T16:55:54.293Z,1.27
2023-04-01T16:58:28.712Z,0.32
2023-04-01T17:01:05.458Z,0.70
2023-04-01T17:03:40.087Z,0.75
2023-04-01T17:06:40.874Z,0.60
2023-04-01T17:09:11.765Z,0.50
2023-04-01T17:12:08.395Z,0.70
2023-04-01T17:15:02.160Z,0.20
2023-04-01T17:17:37.420Z,0.47
2023-04-01T17:20:36.381Z,0.45
2023-04-01T17:23:10.563Z,0.63
2023-04-01T17:28:37.689Z,0.75
2023-04-01T17:31:31.994Z,0.60
2023-04-01T17:34:26.222Z,1.00
2023-04-01T17:37:30.465Z,1.27
2023-04-01T17:40:28.895Z,1.73
2023-04-01T17:43:32.602Z,2.25
2023-04-01T17:46:12.746Z,2.22
2023-04-01T17:48:50.696Z,2.50
2023-04-01T17:52:03.212Z,3.20
2023-04-01T17:55:09.287Z,3.22
2023-04-01T17:58:00.260Z,3.75
2023-04-01T18:04:02.574Z,4.55
2023-04-01T18:07:01.603Z,4.75
2023-04-01T18:09:42.108Z,5.30
2023-04-01T18:12:29.399Z,5.85
2023-04-01T18:15:37.963Z,5.97
2023-04-01T18:18:21.199Z,6.97
2023-04-01T18:21:04.680Z,7.22
2023-04-01T18:24:14.121Z,8.37
2023-04-01T18:26:48.126Z,7.68
2023-04-01T18:29:23.630Z,8.43
2023-04-01T18:32:03.005Z,7.90
2023-04-01T18:34:55.625Z,8.50
2023-04-01T18:37:40.624Z,8.23
2023-04-01T18:40:25.436Z,8.00
2023-04-01T18:43:12.121Z,7.50
2023-04-01T18:46:01.744Z,7.40
2023-04-01T18:48:48.497Z,7.45
2023-04-01T18:51:22.940Z,7.25
2023-04-01T18:54:17.890Z,7.72
2023-04-01T18:56:47.274Z,7.50
2023-04-01T18:59:28.784Z,7.07
2023-04-01T19:02:17.689Z,6.55
2023-04-01T19:05:15.647Z,5.97
2023-04-01T19:07:49.933Z,5.93
2023-04-01T19:10:47.763Z,5.53
2023-04-01T19:13:35.349Z,5.97
2023-04-01T19:16:07.743Z,5.57
2023-04-01T19:18:57.149Z,5.05
2023-04-01T19:21:50.974Z,4.72
2023-04-01T19:25:15.686Z,4.00
2023-04-01T19:27:50.917Z,4.80
2023-04-01T19:30:18.884Z,4.47
2023-04-01T19:33:03.756Z,4.32
2023-04-01T19:35:48.882Z,3.97
2023-04-01T19:38:42.091Z,3.17
2023-04-01T19:41:23.325Z,3.72
2023-04-01T19:44:10.920Z,3.95
2023-04-01T19:47:07.995Z,4.47
2023-04-01T19:50:05.151Z,4.45
2023-04-01T19:52:44.614Z,4.43
2023-04-01T19:55:35.475Z,4.60
2023-04-01T19:58:22.038Z,3.83
2023-04-01T20:00:55.624Z,4.80
2023-04-01T20:04:02.892Z,4.85
2023-04-01T20:06:47.584Z,4.32
2023-04-01T20:09:36.559Z,4.28
2023-04-01T20:12:26.623Z,3.63
2023-04-01T20:15:05.506Z,3.47
2023-04-01T20:17:44.892Z,3.20
2023-04-01T20:20:13.328Z,3.45
2023-04-01T20:22:47.741Z,3.28
2023-04-01T20:25:27.818Z,3.85
2023-04-01T20:27:58.008Z,3.40
2023-04-01T20:30:32.533Z,3.40
2023-04-01T20:33:26.472Z,3.88
2023-04-01T20:39:26.092Z,4.30
2023-04-01T20:41:56.351Z,3.88
2023-04-01T20:45:18.344Z,3.85
2023-04-01T20:48:26.940Z,3.20
2023-04-01T20:51:08.497Z,3.60
2023-04-01T20:54:07.896Z,3.88
2023-04-01T20:56:43.888Z,3.10
2023-04-01T20:59:27.086Z,3.38
2023-04-01T21:02:21.584Z,3.65
2023-04-01T21:05:04.567Z,4.22
2023-04-01T21:07:50.953Z,6.25
2023-04-01T21:10:26.199Z,7.18
2023-04-01T21:13:14.440Z,7.75
2023-04-01T21:16:06.750Z,9.20
2023-04-01T21:18:51.885Z,10.25
2023-04-01T21:21:28.394Z,10.38
2023-04-01T21:24:26.564Z,12.50
2023-04-01T21:27:13.585Z,11.15
2023-04-01T21:30:17.751Z,12.68
2023-04-01T21:33:07.581Z,13.02
2023-04-01T21:35:51.060Z,13.80
2023-04-01T21:38:59.517Z,12.85
2023-04-01T21:42:01.131Z,12.48
2023-04-01T21:45:06.368Z,13.48
2023-04-01T21:50:46.595Z,12.68
2023-04-01T21:53:52.731Z,13.15
2023-04-01T21:56:49.886Z,13.52
2023-04-01T21:59:55.070Z,13.23
2023-04-01T22:05:18.162Z,13.32
2023-04-01T22:07:55.200Z,12.82
2023-04-01T22:11:10.102Z,12.88
2023-04-01T22:13:44.341Z,12.73
2023-04-01T22:16:16.512Z,13.38
2023-04-01T22:18:56.348Z,14.65
2023-04-01T22:22:02.976Z,13.68
2023-04-01T22:24:33.626Z,14.27
2023-04-01T22:27:28.333Z,13.20
2023-04-01T22:30:02.299Z,14.52
2023-04-01T22:32:38.366Z,14.43
2023-04-01T22:35:30.034Z,13.73
2023-04-01T22:38:24.250Z,13.95
2023-04-01T22:41:13.560Z,13.50
2023-04-01T22:43:44.897Z,14.73
2023-04-01T22:46:38.401Z,14.05
2023-04-01T22:49:10.693Z,13.38
2023-04-01T22:51:47.289Z,13.52
2023-04-01T22:54:27.461Z,13.27
2023-04-01T22:57:04.200Z,13.57
2023-04-01T22:59:38.916Z,12.90
2023-04-01T23:02:19.762Z,12.68
2023-04-01T23:04:57.031Z,12.60
2023-04-01T23:07:50.258Z,11.43
2023-04-01T23:10:39.904Z,12.25
2023-04-01T23:13:18.165Z,13.20
2023-04-01T23:15:46.937Z,14.27
2023-04-01T23:18:46.849Z,14.68
2023-04-01T23:21:23.608Z,15.23
2023-04-01T23:24:28.596Z,14.82
2023-04-01T23:27:14.647Z,15.68
2023-04-01T23:29:43.995Z,14.07
2023-04-01T23:32:18.312Z,13.82
2023-04-01T23:35:01.515Z,15.07
2023-04-01T23:37:29.625Z,15.00
2023-04-01T23:39:59.602Z,14.30
2023-04-01T23:42:40.235Z,14.63
2023-04-01T23:45:21.926Z,15.35
2023-04-01T23:47:51.660Z,14.32
2023-04-01T23:50:21.556Z,14.52
2023-04-01T23:52:53.544Z,14.02
2023-04-01T23:55:29.002Z,15.05
2023-04-01T23:58:17.871Z,15.27
